sensor_id;sensor_type;location;lat;lon;timestamp;P1;durP1;ratioP1;P2;durP2;ratioP2
19030;SDS011;9648;51.130;13.978;2023-06-05T00:01:31;5.57;;;2.95;;
19030;SDS011;9648;51.130;13.978;2023-06-05T00:03:59;3.63;;;2.40;;
19030;SDS011;9648;51.130;13.978;2023-06-05T00:06:26;5.37;;;2.10;;
19030;SDS011;9648;51.130;13.978;2023-06-05T00:08:53;3.88;;;2.08;;
19030;SDS011;9648;51.130;13.978;2023-06-05T00:11:20;3.30;;;2.10;;
19030;SDS011;9648;51.130;13.978;2023-06-05T00:13:46;3.72;;;2.20;;
19030;SDS011;9648;51.130;13.978;2023-06-05T00:16:13;3.05;;;2.30;;
19030;SDS011;9648;51.130;13.978;2023-06-05T00:18:42;2.90;;;2.00;;
19030;SDS011;9648;51.130;13.978;2023-06-05T00:21:12;3.33;;;2.20;;
19030;SDS011;9648;51.130;13.978;2023-06-05T00:23:38;3.42;;;2.20;;
19030;SDS011;9648;51.130;13.978;2023-06-05T00:26:05;4.22;;;2.38;;
19030;SDS011;9648;51.130;13.978;2023-06-05T00:28:32;4.72;;;2.50;;
19030;SDS011;9648;51.130;13.978;2023-06-05T00:30:59;4.05;;;2.28;;
19030;SDS011;9648;51.130;13.978;2023-06-05T00:33:27;3.50;;;2.20;;
19030;SDS011;9648;51.130;13.978;2023-06-05T00:35:56;3.60;;;2.20;;
19030;SDS011;9648;51.130;13.978;2023-06-05T00:38:23;3.97;;;2.37;;
19030;SDS011;9648;51.130;13.978;2023-06-05T00:40:50;4.80;;;2.30;;
19030;SDS011;9648;51.130;13.978;2023-06-05T00:43:17;3.47;;;2.20;;
19030;SDS011;9648;51.130;13.978;2023-06-05T00:45:44;3.33;;;2.10;;
19030;SDS011;9648;51.130;13.978;2023-06-05T00:48:11;3.20;;;1.90;;
19030;SDS011;9648;51.130;13.978;2023-06-05T00:50:38;3.03;;;2.10;;
19030;SDS011;9648;51.130;13.978;2023-06-05T00:53:06;2.78;;;1.80;;
19030;SDS011;9648;51.130;13.978;2023-06-05T00:55:33;2.90;;;1.90;;
19030;SDS011;9648;51.130;13.978;2023-06-05T00:58:01;3.20;;;2.00;;
19030;SDS011;9648;51.130;13.978;2023-06-05T01:00:28;3.80;;;2.10;;
19030;SDS011;9648;51.130;13.978;2023-06-05T01:02:55;3.58;;;2.20;;
19030;SDS011;9648;51.130;13.978;2023-06-05T01:05:23;3.30;;;2.20;;
19030;SDS011;9648;51.130;13.978;2023-06-05T01:07:51;3.22;;;2.00;;
19030;SDS011;9648;51.130;13.978;2023-06-05T01:10:20;3.00;;;1.85;;
19030;SDS011;9648;51.130;13.978;2023-06-05T01:12:49;3.55;;;1.92;;
19030;SDS011;9648;51.130;13.978;2023-06-05T01:15:23;2.47;;;1.90;;
19030;SDS011;9648;51.130;13.978;2023-06-05T01:17:54;2.47;;;1.73;;
19030;SDS011;9648;51.130;13.978;2023-06-05T01:20:22;3.05;;;1.75;;
19030;SDS011;9648;51.130;13.978;2023-06-05T01:22:50;3.43;;;1.90;;
19030;SDS011;9648;51.130;13.978;2023-06-05T01:25:18;2.70;;;1.63;;
19030;SDS011;9648;51.130;13.978;2023-06-05T01:27:49;4.70;;;2.20;;
19030;SDS011;9648;51.130;13.978;2023-06-05T01:30:22;3.83;;;2.17;;
19030;SDS011;9648;51.130;13.978;2023-06-05T01:32:55;4.27;;;2.40;;
19030;SDS011;9648;51.130;13.978;2023-06-05T01:35:29;3.38;;;2.20;;
19030;SDS011;9648;51.130;13.978;2023-06-05T01:37:59;3.55;;;2.20;;
19030;SDS011;9648;51.130;13.978;2023-06-05T01:40:29;4.40;;;2.20;;
19030;SDS011;9648;51.130;13.978;2023-06-05T01:42:57;4.20;;;2.00;;
19030;SDS011;9648;51.130;13.978;2023-06-05T01:45:25;2.70;;;2.05;;
19030;SDS011;9648;51.130;13.978;2023-06-05T01:47:53;2.70;;;2.00;;
19030;SDS011;9648;51.130;13.978;2023-06-05T01:50:22;4.47;;;1.95;;
19030;SDS011;9648;51.130;13.978;2023-06-05T01:52:49;4.45;;;2.03;;
19030;SDS011;9648;51.130;13.978;2023-06-05T01:55:19;3.80;;;1.88;;
19030;SDS011;9648;51.130;13.978;2023-06-05T01:57:49;5.00;;;2.10;;
19030;SDS011;9648;51.130;13.978;2023-06-05T02:00:16;2.97;;;2.08;;
19030;SDS011;9648;51.130;13.978;2023-06-05T02:02:43;3.60;;;1.80;;
19030;SDS011;9648;51.130;13.978;2023-06-05T02:05:12;3.42;;;2.20;;
19030;SDS011;9648;51.130;13.978;2023-06-05T02:07:44;3.50;;;2.05;;
19030;SDS011;9648;51.130;13.978;2023-06-05T02:10:14;3.05;;;1.85;;
19030;SDS011;9648;51.130;13.978;2023-06-05T02:12:45;3.20;;;2.00;;
19030;SDS011;9648;51.130;13.978;2023-06-05T02:15:12;3.63;;;1.85;;
19030;SDS011;9648;51.130;13.978;2023-06-05T02:17:40;2.85;;;1.85;;
19030;SDS011;9648;51.130;13.978;2023-06-05T02:20:10;3.20;;;1.90;;
19030;SDS011;9648;51.130;13.978;2023-06-05T02:22:37;3.57;;;1.63;;
19030;SDS011;9648;51.130;13.978;2023-06-05T02:25:05;2.65;;;1.80;;
19030;SDS011;9648;51.130;13.978;2023-06-05T02:27:32;3.58;;;1.90;;
19030;SDS011;9648;51.130;13.978;2023-06-05T02:30:00;4.55;;;1.73;;
19030;SDS011;9648;51.130;13.978;2023-06-05T02:32:27;3.28;;;1.98;;
19030;SDS011;9648;51.130;13.978;2023-06-05T02:34:54;3.25;;;1.90;;
19030;SDS011;9648;51.130;13.978;2023-06-05T02:37:22;3.72;;;1.85;;
19030;SDS011;9648;51.130;13.978;2023-06-05T02:39:49;3.85;;;1.95;;
19030;SDS011;9648;51.130;13.978;2023-06-05T02:42:16;3.20;;;1.90;;
19030;SDS011;9648;51.130;13.978;2023-06-05T02:44:43;3.10;;;1.90;;
19030;SDS011;9648;51.130;13.978;2023-06-05T02:47:12;3.05;;;1.80;;
19030;SDS011;9648;51.130;13.978;2023-06-05T02:49:39;3.33;;;1.90;;
19030;SDS011;9648;51.130;13.978;2023-06-05T02:52:06;3.80;;;1.70;;
19030;SDS011;9648;51.130;13.978;2023-06-05T02:54:32;3.67;;;2.08;;
19030;SDS011;9648;51.130;13.978;2023-06-05T02:57:00;5.30;;;1.90;;
19030;SDS011;9648;51.130;13.978;2023-06-05T02:59:26;3.70;;;1.83;;
19030;SDS011;9648;51.130;13.978;2023-06-05T03:01:56;3.35;;;1.90;;
19030;SDS011;9648;51.130;13.978;2023-06-05T03:04:25;5.28;;;2.00;;
19030;SDS011;9648;51.130;13.978;2023-06-05T03:06:52;2.90;;;1.88;;
19030;SDS011;9648;51.130;13.978;2023-06-05T03:09:21;4.80;;;2.00;;
19030;SDS011;9648;51.130;13.978;2023-06-05T03:11:48;4.53;;;1.90;;
19030;SDS011;9648;51.130;13.978;2023-06-05T03:14:15;2.72;;;1.70;;
19030;SDS011;9648;51.130;13.978;2023-06-05T03:16:42;4.05;;;1.83;;
19030;SDS011;9648;51.130;13.978;2023-06-05T03:19:10;2.83;;;1.67;;
19030;SDS011;9648;51.130;13.978;2023-06-05T03:21:39;6.93;;;2.50;;
19030;SDS011;9648;51.130;13.978;2023-06-05T03:24:08;2.93;;;1.73;;
19030;SDS011;9648;51.130;13.978;2023-06-05T03:26:38;3.88;;;1.70;;
19030;SDS011;9648;51.130;13.978;2023-06-05T03:29:05;3.00;;;1.58;;
19030;SDS011;9648;51.130;13.978;2023-06-05T03:31:32;3.05;;;1.90;;
19030;SDS011;9648;51.130;13.978;2023-06-05T03:33:59;3.58;;;1.70;;
19030;SDS011;9648;51.130;13.978;2023-06-05T03:36:27;3.60;;;2.00;;
19030;SDS011;9648;51.130;13.978;2023-06-05T03:38:56;4.32;;;1.80;;
19030;SDS011;9648;51.130;13.978;2023-06-05T03:41:23;3.30;;;1.80;;
19030;SDS011;9648;51.130;13.978;2023-06-05T03:43:50;2.23;;;1.57;;
19030;SDS011;9648;51.130;13.978;2023-06-05T03:46:18;2.42;;;1.65;;
19030;SDS011;9648;51.130;13.978;2023-06-05T03:48:46;3.30;;;1.63;;
19030;SDS011;9648;51.130;13.978;2023-06-05T03:51:14;3.80;;;1.98;;
19030;SDS011;9648;51.130;13.978;2023-06-05T03:53:42;4.33;;;2.40;;
19030;SDS011;9648;51.130;13.978;2023-06-05T03:56:11;3.72;;;2.10;;
19030;SDS011;9648;51.130;13.978;2023-06-05T03:58:40;3.20;;;1.95;;
19030;SDS011;9648;51.130;13.978;2023-06-05T04:01:07;3.20;;;1.80;;
19030;SDS011;9648;51.130;13.978;2023-06-05T04:03:34;4.40;;;2.03;;
19030;SDS011;9648;51.130;13.978;2023-06-05T04:06:02;3.72;;;1.70;;
19030;SDS011;9648;51.130;13.978;2023-06-05T04:08:30;3.13;;;1.70;;
19030;SDS011;9648;51.130;13.978;2023-06-05T04:10:57;3.78;;;1.70;;
19030;SDS011;9648;51.130;13.978;2023-06-05T04:13:25;3.40;;;1.80;;
19030;SDS011;9648;51.130;13.978;2023-06-05T04:15:52;2.67;;;1.60;;
19030;SDS011;9648;51.130;13.978;2023-06-05T04:18:19;3.08;;;1.80;;
19030;SDS011;9648;51.130;13.978;2023-06-05T04:20:47;5.85;;;1.88;;
19030;SDS011;9648;51.130;13.978;2023-06-05T04:23:14;2.10;;;1.50;;
19030;SDS011;9648;51.130;13.978;2023-06-05T04:25:41;2.90;;;1.80;;
19030;SDS011;9648;51.130;13.978;2023-06-05T04:28:10;2.22;;;1.65;;
19030;SDS011;9648;51.130;13.978;2023-06-05T04:30:39;2.05;;;1.50;;
19030;SDS011;9648;51.130;13.978;2023-06-05T04:33:05;3.42;;;1.95;;
19030;SDS011;9648;51.130;13.978;2023-06-05T04:35:32;3.22;;;1.80;;
19030;SDS011;9648;51.130;13.978;2023-06-05T04:37:59;3.97;;;2.30;;
19030;SDS011;9648;51.130;13.978;2023-06-05T04:40:26;2.10;;;1.60;;
19030;SDS011;9648;51.130;13.978;2023-06-05T04:42:53;3.40;;;1.77;;
19030;SDS011;9648;51.130;13.978;2023-06-05T04:45:21;3.67;;;1.92;;
19030;SDS011;9648;51.130;13.978;2023-06-05T04:47:50;3.03;;;2.10;;
19030;SDS011;9648;51.130;13.978;2023-06-05T04:50:21;4.83;;;2.03;;
19030;SDS011;9648;51.130;13.978;2023-06-05T04:52:51;3.03;;;1.60;;
19030;SDS011;9648;51.130;13.978;2023-06-05T04:55:19;2.28;;;1.65;;
19030;SDS011;9648;51.130;13.978;2023-06-05T04:57:46;3.80;;;1.90;;
19030;SDS011;9648;51.130;13.978;2023-06-05T05:00:13;3.88;;;2.25;;
19030;SDS011;9648;51.130;13.978;2023-06-05T05:02:40;3.92;;;1.95;;
19030;SDS011;9648;51.130;13.978;2023-06-05T05:05:09;3.58;;;1.83;;
19030;SDS011;9648;51.130;13.978;2023-06-05T05:07:38;2.72;;;1.58;;
19030;SDS011;9648;51.130;13.978;2023-06-05T05:10:06;4.38;;;1.70;;
19030;SDS011;9648;51.130;13.978;2023-06-05T05:12:34;4.15;;;1.88;;
19030;SDS011;9648;51.130;13.978;2023-06-05T05:15:01;3.40;;;1.98;;
19030;SDS011;9648;51.130;13.978;2023-06-05T05:17:30;5.63;;;1.92;;
19030;SDS011;9648;51.130;13.978;2023-06-05T05:19:57;2.30;;;1.52;;
19030;SDS011;9648;51.130;13.978;2023-06-05T05:22:25;3.70;;;1.60;;
19030;SDS011;9648;51.130;13.978;2023-06-05T05:24:52;4.90;;;1.80;;
19030;SDS011;9648;51.130;13.978;2023-06-05T05:27:19;2.80;;;1.60;;
19030;SDS011;9648;51.130;13.978;2023-06-05T05:29:45;4.50;;;1.90;;
19030;SDS011;9648;51.130;13.978;2023-06-05T05:32:12;3.30;;;1.70;;
19030;SDS011;9648;51.130;13.978;2023-06-05T05:34:39;2.53;;;1.52;;
19030;SDS011;9648;51.130;13.978;2023-06-05T05:37:06;2.60;;;1.52;;
19030;SDS011;9648;51.130;13.978;2023-06-05T05:39:34;3.75;;;1.80;;
19030;SDS011;9648;51.130;13.978;2023-06-05T05:42:01;3.92;;;1.60;;
19030;SDS011;9648;51.130;13.978;2023-06-05T05:44:28;3.88;;;1.90;;
19030;SDS011;9648;51.130;13.978;2023-06-05T05:46:55;2.45;;;1.60;;
19030;SDS011;9648;51.130;13.978;2023-06-05T05:49:22;2.95;;;1.40;;
19030;SDS011;9648;51.130;13.978;2023-06-05T05:51:48;4.37;;;1.53;;
19030;SDS011;9648;51.130;13.978;2023-06-05T05:54:16;3.25;;;1.40;;
19030;SDS011;9648;51.130;13.978;2023-06-05T05:56:44;2.35;;;1.45;;
19030;SDS011;9648;51.130;13.978;2023-06-05T05:59:12;2.97;;;1.50;;
19030;SDS011;9648;51.130;13.978;2023-06-05T06:01:39;5.40;;;1.70;;
19030;SDS011;9648;51.130;13.978;2023-06-05T06:04:06;3.93;;;1.50;;
19030;SDS011;9648;51.130;13.978;2023-06-05T06:06:32;2.50;;;1.42;;
19030;SDS011;9648;51.130;13.978;2023-06-05T06:08:59;3.37;;;1.70;;
19030;SDS011;9648;51.130;13.978;2023-06-05T06:11:27;3.25;;;1.65;;
19030;SDS011;9648;51.130;13.978;2023-06-05T06:13:55;6.05;;;1.58;;
19030;SDS011;9648;51.130;13.978;2023-06-05T06:16:22;2.80;;;1.40;;
19030;SDS011;9648;51.130;13.978;2023-06-05T06:18:49;2.92;;;1.40;;
19030;SDS011;9648;51.130;13.978;2023-06-05T06:21:17;2.80;;;1.40;;
19030;SDS011;9648;51.130;13.978;2023-06-05T06:23:43;4.93;;;1.80;;
19030;SDS011;9648;51.130;13.978;2023-06-05T06:26:10;1.98;;;1.30;;
19030;SDS011;9648;51.130;13.978;2023-06-05T06:28:39;2.60;;;1.50;;
19030;SDS011;9648;51.130;13.978;2023-06-05T06:31:07;2.97;;;1.33;;
19030;SDS011;9648;51.130;13.978;2023-06-05T06:33:34;3.97;;;1.70;;
19030;SDS011;9648;51.130;13.978;2023-06-05T06:36:02;3.67;;;1.40;;
19030;SDS011;9648;51.130;13.978;2023-06-05T06:38:28;2.95;;;1.60;;
19030;SDS011;9648;51.130;13.978;2023-06-05T06:40:57;2.92;;;1.55;;
19030;SDS011;9648;51.130;13.978;2023-06-05T06:43:24;3.88;;;1.40;;
19030;SDS011;9648;51.130;13.978;2023-06-05T06:45:51;2.30;;;1.40;;
19030;SDS011;9648;51.130;13.978;2023-06-05T06:48:22;3.25;;;1.48;;
19030;SDS011;9648;51.130;13.978;2023-06-05T06:50:49;2.92;;;1.60;;
19030;SDS011;9648;51.130;13.978;2023-06-05T06:53:15;3.65;;;1.60;;
19030;SDS011;9648;51.130;13.978;2023-06-05T06:55:42;3.75;;;1.50;;
19030;SDS011;9648;51.130;13.978;2023-06-05T06:58:09;3.90;;;1.45;;
19030;SDS011;9648;51.130;13.978;2023-06-05T07:00:36;3.88;;;1.50;;
19030;SDS011;9648;51.130;13.978;2023-06-05T07:03:03;2.83;;;1.58;;
19030;SDS011;9648;51.130;13.978;2023-06-05T07:05:31;2.30;;;1.30;;
19030;SDS011;9648;51.130;13.978;2023-06-05T07:07:57;3.10;;;1.65;;
19030;SDS011;9648;51.130;13.978;2023-06-05T07:10:26;2.80;;;1.60;;
19030;SDS011;9648;51.130;13.978;2023-06-05T07:12:54;3.53;;;1.60;;
19030;SDS011;9648;51.130;13.978;2023-06-05T07:15:20;2.40;;;1.50;;
19030;SDS011;9648;51.130;13.978;2023-06-05T07:17:47;5.30;;;1.70;;
19030;SDS011;9648;51.130;13.978;2023-06-05T07:20:14;1.92;;;1.30;;
19030;SDS011;9648;51.130;13.978;2023-06-05T07:22:43;2.33;;;1.40;;
19030;SDS011;9648;51.130;13.978;2023-06-05T07:25:11;2.78;;;1.50;;
19030;SDS011;9648;51.130;13.978;2023-06-05T07:27:39;3.90;;;1.30;;
19030;SDS011;9648;51.130;13.978;2023-06-05T07:30:06;3.38;;;1.50;;
19030;SDS011;9648;51.130;13.978;2023-06-05T07:32:34;2.30;;;1.48;;
19030;SDS011;9648;51.130;13.978;2023-06-05T07:35:01;4.05;;;1.70;;
19030;SDS011;9648;51.130;13.978;2023-06-05T07:37:27;3.15;;;1.48;;
19030;SDS011;9648;51.130;13.978;2023-06-05T07:39:55;3.10;;;1.55;;
19030;SDS011;9648;51.130;13.978;2023-06-05T07:42:22;3.33;;;1.60;;
19030;SDS011;9648;51.130;13.978;2023-06-05T07:44:49;2.28;;;1.40;;
19030;SDS011;9648;51.130;13.978;2023-06-05T07:47:16;3.08;;;1.52;;
19030;SDS011;9648;51.130;13.978;2023-06-05T07:49:43;3.90;;;1.50;;
19030;SDS011;9648;51.130;13.978;2023-06-05T07:52:10;3.35;;;1.63;;
19030;SDS011;9648;51.130;13.978;2023-06-05T07:54:37;3.80;;;1.53;;
19030;SDS011;9648;51.130;13.978;2023-06-05T07:57:05;3.38;;;1.45;;
19030;SDS011;9648;51.130;13.978;2023-06-05T07:59:33;2.92;;;1.50;;
19030;SDS011;9648;51.130;13.978;2023-06-05T08:02:00;2.55;;;1.55;;
19030;SDS011;9648;51.130;13.978;2023-06-05T08:04:27;3.20;;;1.60;;
19030;SDS011;9648;51.130;13.978;2023-06-05T08:06:53;3.63;;;1.48;;
19030;SDS011;9648;51.130;13.978;2023-06-05T08:09:20;2.65;;;1.42;;
19030;SDS011;9648;51.130;13.978;2023-06-05T08:11:47;3.60;;;1.60;;
19030;SDS011;9648;51.130;13.978;2023-06-05T08:14:15;3.80;;;1.60;;
19030;SDS011;9648;51.130;13.978;2023-06-05T08:16:43;4.85;;;1.60;;
19030;SDS011;9648;51.130;13.978;2023-06-05T08:19:10;6.18;;;1.67;;
19030;SDS011;9648;51.130;13.978;2023-06-05T08:21:37;3.38;;;1.50;;
19030;SDS011;9648;51.130;13.978;2023-06-05T08:24:03;2.63;;;1.53;;
19030;SDS011;9648;51.130;13.978;2023-06-05T08:26:31;2.20;;;1.50;;
19030;SDS011;9648;51.130;13.978;2023-06-05T08:28:59;3.65;;;1.45;;
19030;SDS011;9648;51.130;13.978;2023-06-05T08:31:27;3.83;;;1.57;;
19030;SDS011;9648;51.130;13.978;2023-06-05T08:33:54;5.25;;;1.70;;
19030;SDS011;9648;51.130;13.978;2023-06-05T08:36:20;3.38;;;1.55;;
19030;SDS011;9648;51.130;13.978;2023-06-05T08:38:49;2.70;;;1.60;;
19030;SDS011;9648;51.130;13.978;2023-06-05T08:41:16;3.30;;;1.60;;
19030;SDS011;9648;51.130;13.978;2023-06-05T08:43:43;3.38;;;1.70;;
19030;SDS011;9648;51.130;13.978;2023-06-05T08:46:11;4.50;;;1.77;;
19030;SDS011;9648;51.130;13.978;2023-06-05T08:48:42;4.72;;;2.00;;
19030;SDS011;9648;51.130;13.978;2023-06-05T08:51:10;3.77;;;1.50;;
19030;SDS011;9648;51.130;13.978;2023-06-05T08:53:38;5.15;;;1.52;;
19030;SDS011;9648;51.130;13.978;2023-06-05T08:56:05;5.13;;;1.75;;
19030;SDS011;9648;51.130;13.978;2023-06-05T08:58:33;3.97;;;1.90;;
19030;SDS011;9648;51.130;13.978;2023-06-05T09:01:00;12.18;;;4.38;;
19030;SDS011;9648;51.130;13.978;2023-06-05T09:03:27;6.60;;;2.67;;
19030;SDS011;9648;51.130;13.978;2023-06-05T09:05:56;4.50;;;1.95;;
19030;SDS011;9648;51.130;13.978;2023-06-05T09:08:29;3.17;;;1.75;;
19030;SDS011;9648;51.130;13.978;2023-06-05T09:13:52;3.03;;;1.70;;
19030;SDS011;9648;51.130;13.978;2023-06-05T09:16:21;3.40;;;1.60;;
19030;SDS011;9648;51.130;13.978;2023-06-05T09:18:52;3.95;;;1.80;;
19030;SDS011;9648;51.130;13.978;2023-06-05T09:21:22;4.45;;;1.90;;
19030;SDS011;9648;51.130;13.978;2023-06-05T09:24:01;4.68;;;2.00;;
19030;SDS011;9648;51.130;13.978;2023-06-05T09:26:53;5.60;;;2.08;;
19030;SDS011;9648;51.130;13.978;2023-06-05T09:29:22;2.30;;;1.70;;
19030;SDS011;9648;51.130;13.978;2023-06-05T09:31:50;7.20;;;1.90;;
19030;SDS011;9648;51.130;13.978;2023-06-05T09:34:20;4.78;;;2.10;;
19030;SDS011;9648;51.130;13.978;2023-06-05T09:36:49;3.83;;;2.20;;
19030;SDS011;9648;51.130;13.978;2023-06-05T09:39:17;5.60;;;1.98;;
19030;SDS011;9648;51.130;13.978;2023-06-05T09:41:45;4.40;;;2.10;;
19030;SDS011;9648;51.130;13.978;2023-06-05T09:44:14;4.25;;;1.92;;
19030;SDS011;9648;51.130;13.978;2023-06-05T09:46:50;4.72;;;1.90;;
19030;SDS011;9648;51.130;13.978;2023-06-05T09:49:18;4.15;;;2.00;;
19030;SDS011;9648;51.130;13.978;2023-06-05T09:51:46;3.30;;;1.70;;
19030;SDS011;9648;51.130;13.978;2023-06-05T09:54:15;6.82;;;1.83;;
19030;SDS011;9648;51.130;13.978;2023-06-05T09:56:44;3.72;;;1.92;;
19030;SDS011;9648;51.130;13.978;2023-06-05T09:59:16;4.70;;;2.10;;
19030;SDS011;9648;51.130;13.978;2023-06-05T10:01:47;2.90;;;1.70;;
19030;SDS011;9648;51.130;13.978;2023-06-05T10:04:16;6.38;;;2.05;;
19030;SDS011;9648;51.130;13.978;2023-06-05T10:06:45;2.90;;;1.77;;
19030;SDS011;9648;51.130;13.978;2023-06-05T10:09:15;3.65;;;1.70;;
19030;SDS011;9648;51.130;13.978;2023-06-05T10:11:42;3.90;;;1.77;;
19030;SDS011;9648;51.130;13.978;2023-06-05T10:14:09;3.40;;;1.80;;
19030;SDS011;9648;51.130;13.978;2023-06-05T10:16:36;5.00;;;1.90;;
19030;SDS011;9648;51.130;13.978;2023-06-05T10:19:05;3.03;;;1.70;;
19030;SDS011;9648;51.130;13.978;2023-06-05T10:21:33;3.58;;;1.83;;
19030;SDS011;9648;51.130;13.978;2023-06-05T10:24:01;4.43;;;2.10;;
19030;SDS011;9648;51.130;13.978;2023-06-05T10:26:36;3.15;;;1.80;;
19030;SDS011;9648;51.130;13.978;2023-06-05T10:29:14;2.30;;;1.70;;
19030;SDS011;9648;51.130;13.978;2023-06-05T10:31:57;7.63;;;1.80;;
19030;SDS011;9648;51.130;13.978;2023-06-05T10:34:30;2.92;;;1.98;;
19030;SDS011;9648;51.130;13.978;2023-06-05T10:37:17;3.47;;;1.80;;
19030;SDS011;9648;51.130;13.978;2023-06-05T10:40:07;3.75;;;1.80;;
19030;SDS011;9648;51.130;13.978;2023-06-05T10:42:36;5.87;;;2.00;;
19030;SDS011;9648;51.130;13.978;2023-06-05T10:45:04;5.60;;;1.92;;
19030;SDS011;9648;51.130;13.978;2023-06-05T10:47:48;3.40;;;2.08;;
19030;SDS011;9648;51.130;13.978;2023-06-05T10:50:19;3.92;;;1.98;;
19030;SDS011;9648;51.130;13.978;2023-06-05T10:52:54;3.75;;;1.95;;
19030;SDS011;9648;51.130;13.978;2023-06-05T10:55:23;2.88;;;1.92;;
19030;SDS011;9648;51.130;13.978;2023-06-05T10:58:05;4.78;;;1.90;;
19030;SDS011;9648;51.130;13.978;2023-06-05T11:00:39;3.35;;;1.90;;
19030;SDS011;9648;51.130;13.978;2023-06-05T11:03:54;3.40;;;2.00;;
19030;SDS011;9648;51.130;13.978;2023-06-05T11:06:22;3.50;;;2.05;;
19030;SDS011;9648;51.130;13.978;2023-06-05T11:09:05;3.30;;;1.73;;
19030;SDS011;9648;51.130;13.978;2023-06-05T11:14:22;4.20;;;2.10;;
19030;SDS011;9648;51.130;13.978;2023-06-05T11:16:49;5.33;;;2.00;;
19030;SDS011;9648;51.130;13.978;2023-06-05T11:19:35;4.75;;;2.30;;
19030;SDS011;9648;51.130;13.978;2023-06-05T11:22:06;3.45;;;2.20;;
19030;SDS011;9648;51.130;13.978;2023-06-05T11:24:34;3.83;;;2.07;;
19030;SDS011;9648;51.130;13.978;2023-06-05T11:27:02;4.25;;;2.15;;
19030;SDS011;9648;51.130;13.978;2023-06-05T11:29:30;5.80;;;2.33;;
19030;SDS011;9648;51.130;13.978;2023-06-05T11:31:58;4.45;;;2.50;;
19030;SDS011;9648;51.130;13.978;2023-06-05T11:34:25;4.47;;;2.30;;
19030;SDS011;9648;51.130;13.978;2023-06-05T11:36:56;4.07;;;2.30;;
19030;SDS011;9648;51.130;13.978;2023-06-05T11:39:43;7.03;;;2.17;;
19030;SDS011;9648;51.130;13.978;2023-06-05T11:42:10;5.88;;;2.20;;
19030;SDS011;9648;51.130;13.978;2023-06-05T11:44:37;3.55;;;2.05;;
19030;SDS011;9648;51.130;13.978;2023-06-05T11:47:04;4.03;;;2.28;;
19030;SDS011;9648;51.130;13.978;2023-06-05T11:49:31;4.82;;;2.38;;
19030;SDS011;9648;51.130;13.978;2023-06-05T11:51:59;5.03;;;2.20;;
19030;SDS011;9648;51.130;13.978;2023-06-05T11:54:27;2.85;;;2.22;;
19030;SDS011;9648;51.130;13.978;2023-06-05T11:56:56;4.80;;;2.10;;
19030;SDS011;9648;51.130;13.978;2023-06-05T11:59:33;3.60;;;2.30;;
19030;SDS011;9648;51.130;13.978;2023-06-05T12:02:00;7.28;;;2.53;;
19030;SDS011;9648;51.130;13.978;2023-06-05T12:04:28;4.03;;;2.30;;
19030;SDS011;9648;51.130;13.978;2023-06-05T12:06:56;6.13;;;2.17;;
19030;SDS011;9648;51.130;13.978;2023-06-05T12:09:26;6.20;;;2.43;;
19030;SDS011;9648;51.130;13.978;2023-06-05T12:11:52;3.97;;;2.20;;
19030;SDS011;9648;51.130;13.978;2023-06-05T12:14:32;3.58;;;2.10;;
19030;SDS011;9648;51.130;13.978;2023-06-05T12:16:59;4.22;;;2.03;;
19030;SDS011;9648;51.130;13.978;2023-06-05T12:19:28;3.80;;;2.20;;
19030;SDS011;9648;51.130;13.978;2023-06-05T12:22:01;3.20;;;2.20;;
19030;SDS011;9648;51.130;13.978;2023-06-05T12:24:31;3.25;;;2.00;;
19030;SDS011;9648;51.130;13.978;2023-06-05T12:26:58;8.20;;;2.50;;
19030;SDS011;9648;51.130;13.978;2023-06-05T12:29:26;4.10;;;2.10;;
19030;SDS011;9648;51.130;13.978;2023-06-05T12:31:54;2.85;;;2.10;;
19030;SDS011;9648;51.130;13.978;2023-06-05T12:34:38;4.18;;;2.25;;
19030;SDS011;9648;51.130;13.978;2023-06-05T12:37:07;3.85;;;2.42;;
19030;SDS011;9648;51.130;13.978;2023-06-05T12:39:35;3.80;;;2.50;;
19030;SDS011;9648;51.130;13.978;2023-06-05T12:42:02;5.28;;;2.40;;
19030;SDS011;9648;51.130;13.978;2023-06-05T12:44:29;4.65;;;2.38;;
19030;SDS011;9648;51.130;13.978;2023-06-05T12:46:56;3.17;;;2.10;;
19030;SDS011;9648;51.130;13.978;2023-06-05T12:49:23;3.27;;;2.27;;
19030;SDS011;9648;51.130;13.978;2023-06-05T12:51:50;4.60;;;2.17;;
19030;SDS011;9648;51.130;13.978;2023-06-05T12:54:17;3.38;;;2.22;;
19030;SDS011;9648;51.130;13.978;2023-06-05T12:56:46;3.05;;;2.22;;
19030;SDS011;9648;51.130;13.978;2023-06-05T12:59:12;4.97;;;2.22;;
19030;SDS011;9648;51.130;13.978;2023-06-05T13:01:39;5.30;;;2.20;;
19030;SDS011;9648;51.130;13.978;2023-06-05T13:04:06;4.28;;;2.30;;
19030;SDS011;9648;51.130;13.978;2023-06-05T13:06:33;4.13;;;2.30;;
19030;SDS011;9648;51.130;13.978;2023-06-05T13:09:00;4.63;;;2.60;;
19030;SDS011;9648;51.130;13.978;2023-06-05T13:11:31;4.13;;;2.63;;
19030;SDS011;9648;51.130;13.978;2023-06-05T13:13:59;3.08;;;2.45;;
19030;SDS011;9648;51.130;13.978;2023-06-05T13:16:26;5.40;;;2.50;;
19030;SDS011;9648;51.130;13.978;2023-06-05T13:18:53;3.72;;;2.60;;
19030;SDS011;9648;51.130;13.978;2023-06-05T13:21:20;3.67;;;2.47;;
19030;SDS011;9648;51.130;13.978;2023-06-05T13:23:47;3.63;;;2.30;;
19030;SDS011;9648;51.130;13.978;2023-06-05T13:26:14;3.88;;;2.60;;
19030;SDS011;9648;51.130;13.978;2023-06-05T13:28:41;4.50;;;2.50;;
19030;SDS011;9648;51.130;13.978;2023-06-05T13:31:10;5.50;;;2.80;;
19030;SDS011;9648;51.130;13.978;2023-06-05T13:33:38;5.07;;;2.50;;
19030;SDS011;9648;51.130;13.978;2023-06-05T13:36:06;2.88;;;2.20;;
19030;SDS011;9648;51.130;13.978;2023-06-05T13:38:33;6.03;;;2.50;;
19030;SDS011;9648;51.130;13.978;2023-06-05T13:41:02;5.85;;;2.75;;
19030;SDS011;9648;51.130;13.978;2023-06-05T13:43:32;4.90;;;2.40;;
19030;SDS011;9648;51.130;13.978;2023-06-05T13:45:59;4.03;;;2.53;;
19030;SDS011;9648;51.130;13.978;2023-06-05T13:48:28;4.30;;;2.40;;
19030;SDS011;9648;51.130;13.978;2023-06-05T13:50:55;4.80;;;2.90;;
19030;SDS011;9648;51.130;13.978;2023-06-05T13:53:22;4.03;;;2.50;;
19030;SDS011;9648;51.130;13.978;2023-06-05T13:55:49;5.30;;;2.60;;
19030;SDS011;9648;51.130;13.978;2023-06-05T13:58:16;4.45;;;2.42;;
19030;SDS011;9648;51.130;13.978;2023-06-05T14:00:43;4.60;;;2.53;;
19030;SDS011;9648;51.130;13.978;2023-06-05T14:03:09;4.07;;;2.50;;
19030;SDS011;9648;51.130;13.978;2023-06-05T14:05:38;5.97;;;2.88;;
19030;SDS011;9648;51.130;13.978;2023-06-05T14:08:05;4.00;;;2.23;;
19030;SDS011;9648;51.130;13.978;2023-06-05T14:10:32;5.20;;;2.25;;
19030;SDS011;9648;51.130;13.978;2023-06-05T14:13:01;3.80;;;2.20;;
19030;SDS011;9648;51.130;13.978;2023-06-05T14:15:29;2.80;;;2.17;;
19030;SDS011;9648;51.130;13.978;2023-06-05T14:17:57;3.60;;;2.28;;
19030;SDS011;9648;51.130;13.978;2023-06-05T14:20:26;3.07;;;2.27;;
19030;SDS011;9648;51.130;13.978;2023-06-05T14:22:56;3.22;;;2.20;;
19030;SDS011;9648;51.130;13.978;2023-06-05T14:25:22;3.80;;;2.55;;
19030;SDS011;9648;51.130;13.978;2023-06-05T14:27:53;4.35;;;2.13;;
19030;SDS011;9648;51.130;13.978;2023-06-05T14:30:20;4.40;;;2.45;;
19030;SDS011;9648;51.130;13.978;2023-06-05T14:32:47;6.90;;;2.60;;
19030;SDS011;9648;51.130;13.978;2023-06-05T14:35:14;3.58;;;2.38;;
19030;SDS011;9648;51.130;13.978;2023-06-05T14:37:41;4.60;;;2.40;;
19030;SDS011;9648;51.130;13.978;2023-06-05T14:40:09;4.97;;;2.40;;
19030;SDS011;9648;51.130;13.978;2023-06-05T14:42:37;5.18;;;2.45;;
19030;SDS011;9648;51.130;13.978;2023-06-05T14:45:04;3.67;;;2.37;;
19030;SDS011;9648;51.130;13.978;2023-06-05T14:47:32;4.43;;;2.45;;
19030;SDS011;9648;51.130;13.978;2023-06-05T14:49:59;3.92;;;2.38;;
19030;SDS011;9648;51.130;13.978;2023-06-05T14:52:25;5.60;;;2.28;;
19030;SDS011;9648;51.130;13.978;2023-06-05T14:54:52;4.30;;;2.17;;
19030;SDS011;9648;51.130;13.978;2023-06-05T14:57:20;4.80;;;2.30;;
19030;SDS011;9648;51.130;13.978;2023-06-05T14:59:47;2.57;;;2.00;;
19030;SDS011;9648;51.130;13.978;2023-06-05T15:02:14;6.07;;;2.25;;